Terminal Aerodrome Forecast
Issued by NWS Billings, MT

Home | Current Version | Previous Version | Graphics & Text | Print | Product List | Glossary On
Versions: 1 2 3 4 5 6 7 8 9 10 11 12 13 14
000
FTUS45 KBYZ 191725
TAFMLS
TAF
KMLS 191725Z 1918/2018 07011KT 1SM -SN BKN020 BKN050
      TEMPO 1918/1922 3SM -SN BR SCT020 BKN035
     FM192200 VRB05KT 5SM -SN BR SCT020 OVC040
     FM200500 VRB05KT 6SM -SN FEW010 SCT050
     FM201600 27011KT P6SM FEW010 SCT050=

USA.gov is the U.S. government's official web portal to all federal, state and local government web resources and services.